createdAt,value
2018-05-03T00:00:38.123Z,67.91
2018-05-03T00:04:40.613Z,67.88
2018-05-03T00:08:43.054Z,68.02
2018-05-03T00:12:45.522Z,67.66
2018-05-03T00:16:47.998Z,67.81
2018-05-03T00:20:51.504Z,67.61
2018-05-03T00:24:54.989Z,67.59
2018-05-03T00:28:58.427Z,67.54
2018-05-03T00:33:00.900Z,67.67
2018-05-03T00:37:04.300Z,68.15
2018-05-03T00:41:06.787Z,67.99
2018-05-03T00:45:09.231Z,67.92
2018-05-03T00:49:11.778Z,68.13
2018-05-03T00:53:14.228Z,68.17
2018-05-03T00:57:16.705Z,68.10
2018-05-03T01:01:20.154Z,68.22
2018-05-03T01:05:22.657Z,68.04
2018-05-03T01:09:26.064Z,67.94
2018-05-03T01:13:28.534Z,67.87
2018-05-03T01:17:31.009Z,67.84
2018-05-03T01:21:34.483Z,67.83
2018-05-03T01:25:36.929Z,68.00
2018-05-03T01:29:40.389Z,68.19
2018-05-03T01:33:43.795Z,68.32
2018-05-03T01:37:49.931Z,68.27
2018-05-03T01:41:54.411Z,68.02
2018-05-03T01:45:57.792Z,68.06
2018-05-03T01:50:00.277Z,68.19
2018-05-03T01:54:03.723Z,68.34
2018-05-03T01:58:08.155Z,68.39
2018-05-03T02:02:11.563Z,68.35
2018-05-03T02:06:14.037Z,68.32
2018-05-03T02:10:16.505Z,68.32
2018-05-03T02:14:20.982Z,68.53
2018-05-03T02:18:23.466Z,68.51
2018-05-03T02:22:27.925Z,68.41
2018-05-03T02:26:31.414Z,68.40
2018-05-03T02:30:39.441Z,68.58
2018-05-03T02:34:41.920Z,68.67
2018-05-03T03:52:53.301Z,68.55
2018-05-03T03:56:56.962Z,68.73
2018-05-03T04:01:08.462Z,68.81
2018-05-03T04:05:10.923Z,69.04
2018-05-03T05:23:19.880Z,71.08
2018-05-03T05:27:22.458Z,71.08
2018-05-03T05:31:25.088Z,71.18
2018-05-03T05:35:27.705Z,71.04
2018-05-03T05:39:30.284Z,70.70
2018-05-03T05:43:32.792Z,70.39
2018-05-03T05:47:35.370Z,70.00
2018-05-03T05:51:38.034Z,69.87
2018-05-03T05:55:40.659Z,69.90
2018-05-03T05:59:43.283Z,69.79
2018-05-03T06:03:45.955Z,69.20
2018-05-03T06:07:48.525Z,68.87
2018-05-03T06:11:51.163Z,68.81
2018-05-03T06:15:53.874Z,68.51
2018-05-03T06:19:56.518Z,68.27
2018-05-03T06:23:59.213Z,67.84
2018-05-03T06:28:01.762Z,68.07
2018-05-03T06:32:04.317Z,67.56
2018-05-03T06:36:06.919Z,67.10
2018-05-03T06:40:15.444Z,67.05
2018-05-03T06:44:18.052Z,65.74
2018-05-03T06:48:20.678Z,65.50
2018-05-03T06:52:23.235Z,65.31
2018-05-03T06:56:25.883Z,64.24
2018-05-03T07:04:37.394Z,64.06
2018-05-03T07:08:39.957Z,63.64
2018-05-03T07:12:42.577Z,63.36
2018-05-03T07:16:45.164Z,63.23
2018-05-03T07:20:47.693Z,62.71
2018-05-03T07:24:50.221Z,61.93
2018-05-03T07:28:52.763Z,61.73
2018-05-03T07:32:55.260Z,60.43
2018-05-03T07:36:57.776Z,60.59
2018-05-03T07:41:00.311Z,59.42
2018-05-03T07:45:02.818Z,60.06
2018-05-03T07:49:05.337Z,58.69
2018-05-03T07:53:07.814Z,57.38
2018-05-03T07:57:10.261Z,56.48
2018-05-03T08:01:12.831Z,57.05
2018-05-03T08:05:15.225Z,56.61
2018-05-03T08:09:17.691Z,58.44
2018-05-03T08:13:20.162Z,58.22
2018-05-03T08:17:22.638Z,56.92
2018-05-03T08:21:25.118Z,57.04
2018-05-03T08:25:27.614Z,55.95
2018-05-03T08:29:30.077Z,56.79
2018-05-03T08:33:32.552Z,56.25
2018-05-03T08:37:35.044Z,54.97
2018-05-03T08:41:37.496Z,54.69
2018-05-03T08:45:39.965Z,55.89
2018-05-03T08:49:42.443Z,56.13
2018-05-03T08:53:44.915Z,56.33
2018-05-03T08:57:47.370Z,56.56
2018-05-03T09:01:49.881Z,56.31
2018-05-03T09:05:52.344Z,55.80
2018-05-03T09:09:54.829Z,56.08
2018-05-03T09:13:57.309Z,56.50
2018-05-03T09:17:59.770Z,55.68
2018-05-03T09:22:02.239Z,55.45
2018-05-03T09:26:04.702Z,56.84
2018-05-03T09:30:07.179Z,54.67
2018-05-03T09:34:09.655Z,54.56
2018-05-03T09:38:12.135Z,54.40
2018-05-03T09:42:14.626Z,54.64
2018-05-03T09:46:17.113Z,53.05
2018-05-03T09:50:19.597Z,52.97
2018-05-03T09:58:30.988Z,51.18
2018-05-03T10:02:33.450Z,51.70
2018-05-03T10:06:35.919Z,51.45
2018-05-03T10:10:38.391Z,51.06
2018-05-03T10:14:40.951Z,51.27
2018-05-03T10:18:43.317Z,49.72
2018-05-03T10:22:45.821Z,49.87
2018-05-03T10:26:48.307Z,49.53
2018-05-03T10:30:51.752Z,49.06
2018-05-03T10:34:54.227Z,49.03
2018-05-03T10:38:58.342Z,50.71
2018-05-03T10:43:00.882Z,50.12
2018-05-03T10:47:03.396Z,49.74
2018-05-03T10:51:05.912Z,49.50
2018-05-03T10:55:08.441Z,50.36
2018-05-03T11:03:53.174Z,48.99
2018-05-03T11:07:55.631Z,48.63
2018-05-03T11:11:58.116Z,47.59
2018-05-03T11:16:00.596Z,48.27
2018-05-03T11:20:03.089Z,47.94
2018-05-03T11:24:05.579Z,47.11
2018-05-03T11:28:08.030Z,47.86
2018-05-03T11:32:10.506Z,46.62
2018-05-03T11:36:13.004Z,45.70
2018-05-03T11:40:15.451Z,46.14
2018-05-03T11:44:17.927Z,45.09
2018-05-03T11:48:20.411Z,44.67
2018-05-03T11:52:22.892Z,43.92
2018-05-03T11:56:25.380Z,43.50
2018-05-03T12:00:27.844Z,42.60
2018-05-03T12:04:30.321Z,42.57
2018-05-03T12:08:32.797Z,41.35
2018-05-03T12:12:35.296Z,40.73
2018-05-03T12:16:37.742Z,40.64
2018-05-03T12:20:40.221Z,39.68
2018-05-03T12:24:42.696Z,39.92
2018-05-03T12:28:45.156Z,38.20
2018-05-03T12:32:47.688Z,39.17
2018-05-03T12:36:50.110Z,40.50
2018-05-03T12:40:52.585Z,39.39
2018-05-03T12:44:55.071Z,39.86
2018-05-03T12:48:57.556Z,38.35
2018-05-03T12:53:00.002Z,39.05
2018-05-03T12:57:02.484Z,39.30
2018-05-03T13:01:04.971Z,38.52
2018-05-03T13:05:07.454Z,38.40
2018-05-03T13:09:09.932Z,39.14
2018-05-03T13:13:12.392Z,39.71
2018-05-03T13:17:14.875Z,40.21
2018-05-03T13:21:17.355Z,39.99
2018-05-03T13:25:19.858Z,39.80
2018-05-03T13:29:22.307Z,40.02
2018-05-03T13:33:24.793Z,39.35
2018-05-03T13:37:27.261Z,40.62
2018-05-03T13:41:30.774Z,40.04
2018-05-03T13:45:33.228Z,40.00
2018-05-03T13:49:35.717Z,40.28
2018-05-03T13:53:38.237Z,41.38
2018-05-03T13:57:40.722Z,41.43
2018-05-03T14:01:43.175Z,41.75
2018-05-03T14:05:45.648Z,40.41
2018-05-03T14:09:48.127Z,40.72
2018-05-03T14:13:50.681Z,40.64
2018-05-03T14:17:53.140Z,40.44
2018-05-03T14:21:55.850Z,40.47
2018-05-03T14:25:58.337Z,41.11
2018-05-03T14:30:00.791Z,40.46
2018-05-03T14:34:03.307Z,40.50
2018-05-03T14:38:05.787Z,41.01
2018-05-03T14:42:08.270Z,40.83
2018-05-03T14:46:10.764Z,41.10
2018-05-03T14:50:13.219Z,40.99
2018-05-03T14:54:15.718Z,43.04
2018-05-03T14:58:18.179Z,41.57
2018-05-03T15:02:20.631Z,40.25
2018-05-03T15:06:23.109Z,40.07
2018-05-03T15:10:25.589Z,40.98
2018-05-03T15:14:28.062Z,40.43
2018-05-03T15:18:30.603Z,41.45
2018-05-03T15:22:33.019Z,41.73
2018-05-03T15:26:35.474Z,40.81
2018-05-03T15:30:37.962Z,41.95
2018-05-03T15:34:40.438Z,40.66
2018-05-03T15:38:42.898Z,41.28
2018-05-03T15:42:45.382Z,41.77
2018-05-03T15:46:47.877Z,42.34
2018-05-03T15:50:51.354Z,41.44
2018-05-03T15:54:53.838Z,41.99
2018-05-03T15:58:56.316Z,41.68
2018-05-03T16:02:58.773Z,41.81
2018-05-03T16:07:01.260Z,41.71
2018-05-03T16:11:03.719Z,39.70
2018-05-03T16:15:06.204Z,38.22
2018-05-03T16:19:08.688Z,37.49
2018-05-03T16:23:11.176Z,37.95
2018-05-03T16:27:13.696Z,37.88
2018-05-03T16:31:16.147Z,36.70
2018-05-03T16:35:18.733Z,36.23
2018-05-03T16:39:21.176Z,37.48
2018-05-03T16:43:23.682Z,38.21
2018-05-03T16:47:26.170Z,37.99
2018-05-03T16:51:28.652Z,38.17
2018-05-03T16:55:31.135Z,37.00
2018-05-03T16:59:33.594Z,37.20
2018-05-03T17:03:36.068Z,37.73
2018-05-03T17:07:38.555Z,37.98
2018-05-03T17:11:41.027Z,37.17
2018-05-03T17:15:43.538Z,38.27
2018-05-03T17:19:46.031Z,39.27
2018-05-03T17:23:48.491Z,40.12
2018-05-03T17:27:50.997Z,40.06
2018-05-03T17:31:53.451Z,39.80
2018-05-03T17:35:55.931Z,39.28
2018-05-03T17:39:58.399Z,39.53
2018-05-03T17:44:00.879Z,41.17
2018-05-03T17:48:03.335Z,41.28
2018-05-03T17:52:05.808Z,41.73
2018-05-03T17:56:08.262Z,42.01
2018-05-03T18:00:10.746Z,42.17
2018-05-03T18:04:13.192Z,42.40
2018-05-03T18:08:15.671Z,42.11
2018-05-03T18:12:18.155Z,41.61
2018-05-03T18:16:20.696Z,41.50
2018-05-03T18:20:23.092Z,42.28
2018-05-03T18:24:25.636Z,43.11
2018-05-03T18:28:28.070Z,44.52
2018-05-03T18:32:30.559Z,45.51
2018-05-03T18:36:33.107Z,46.30
2018-05-03T18:40:35.599Z,47.04
2018-05-03T18:44:38.050Z,47.32
2018-05-03T18:48:40.549Z,47.69
2018-05-03T18:52:43.027Z,48.33
2018-05-03T18:56:45.479Z,48.75
2018-05-03T19:00:47.968Z,49.27
2018-05-03T19:04:50.452Z,49.38
2018-05-03T19:08:52.915Z,49.85
2018-05-03T19:12:55.459Z,50.05
2018-05-03T19:16:57.898Z,50.49
2018-05-03T19:21:00.390Z,50.87
2018-05-03T19:25:02.848Z,51.13
2018-05-03T19:29:05.332Z,51.18
2018-05-03T19:33:07.801Z,51.52
2018-05-03T19:37:10.290Z,51.58
2018-05-03T19:41:13.615Z,52.03
2018-05-03T19:45:16.107Z,52.06
2018-05-03T19:49:18.604Z,52.24
2018-05-03T19:53:21.096Z,52.25
2018-05-03T19:57:23.553Z,52.26
2018-05-03T20:01:26.040Z,52.20
2018-05-03T20:05:28.527Z,52.24
2018-05-03T20:09:30.971Z,51.82
2018-05-03T20:13:33.506Z,51.16
2018-05-03T20:17:35.960Z,50.88
2018-05-03T20:21:38.436Z,51.01
2018-05-03T20:25:40.926Z,51.16
2018-05-03T20:29:43.415Z,51.41
2018-05-03T20:33:45.874Z,51.61
2018-05-03T20:37:48.354Z,52.33
2018-05-03T20:41:50.832Z,53.17
2018-05-03T20:45:53.367Z,53.67
2018-05-03T20:49:55.803Z,54.22
2018-05-03T20:53:58.286Z,54.63
2018-05-03T20:58:00.752Z,55.19
2018-05-03T21:02:03.264Z,55.63
2018-05-03T21:06:05.737Z,56.06
2018-05-03T21:10:08.224Z,56.45
2018-05-03T21:14:11.151Z,56.54
2018-05-03T21:18:13.632Z,56.79
2018-05-03T21:22:16.115Z,56.85
2018-05-03T21:26:18.670Z,57.04
2018-05-03T21:30:21.071Z,57.07
2018-05-03T21:34:23.526Z,57.38
2018-05-03T21:38:26.044Z,57.64
2018-05-03T21:42:28.653Z,57.40
2018-05-03T21:46:31.138Z,57.39
2018-05-03T21:50:33.627Z,57.52
2018-05-03T21:54:36.074Z,57.56
2018-05-03T21:58:38.564Z,57.54
2018-05-03T22:02:41.054Z,57.68
2018-05-03T22:06:43.511Z,57.94
2018-05-03T22:10:46.003Z,57.98
2018-05-03T22:14:48.466Z,58.10
2018-05-03T22:18:50.950Z,58.35
2018-05-03T22:22:53.429Z,58.48
2018-05-03T22:26:55.915Z,58.59
2018-05-03T22:30:58.402Z,58.74
2018-05-03T22:35:00.921Z,59.03
2018-05-03T22:39:03.405Z,58.98
2018-05-03T22:43:06.123Z,58.97
2018-05-03T22:47:08.602Z,59.04
2018-05-03T22:51:11.081Z,59.13
2018-05-03T22:55:13.530Z,59.30
2018-05-03T22:59:16.019Z,59.39
2018-05-03T23:03:18.494Z,59.54
2018-05-03T23:07:20.971Z,59.60
2018-05-03T23:11:23.450Z,59.75
2018-05-03T23:15:25.936Z,59.65
2018-05-03T23:19:28.421Z,59.60
2018-05-03T23:23:30.906Z,59.73
2018-05-03T23:27:33.392Z,59.80
2018-05-03T23:31:35.882Z,60.01
2018-05-03T23:35:38.377Z,60.29
2018-05-03T23:39:40.876Z,60.28
2018-05-03T23:43:43.331Z,60.30
2018-05-03T23:47:45.828Z,60.42
2018-05-03T23:51:48.287Z,60.60
2018-05-03T23:55:50.813Z,60.71
2018-05-03T23:59:53.303Z,60.76
